sensor_id;sensor_type;location;lat;lon;timestamp;temperature;humidity
18882;DHT22;9573;50.948;11.600;2023-04-24T00:02:01;11.00;99.90
18882;DHT22;9573;50.948;11.600;2023-04-24T00:04:29;10.90;99.90
18882;DHT22;9573;50.948;11.600;2023-04-24T00:06:57;10.90;99.90
18882;DHT22;9573;50.948;11.600;2023-04-24T00:09:26;10.80;99.90
18882;DHT22;9573;50.948;11.600;2023-04-24T00:11:53;10.90;99.90
18882;DHT22;9573;50.948;11.600;2023-04-24T00:14:21;10.90;99.90
18882;DHT22;9573;50.948;11.600;2023-04-24T00:16:48;10.80;99.90
18882;DHT22;9573;50.948;11.600;2023-04-24T00:19:15;10.80;99.90
18882;DHT22;9573;50.948;11.600;2023-04-24T00:21:46;10.80;99.90
18882;DHT22;9573;50.948;11.600;2023-04-24T00:24:15;10.80;99.90
18882;DHT22;9573;50.948;11.600;2023-04-24T00:26:44;10.80;99.90
18882;DHT22;9573;50.948;11.600;2023-04-24T00:29:11;10.90;99.90
18882;DHT22;9573;50.948;11.600;2023-04-24T00:31:38;11.00;99.90
18882;DHT22;9573;50.948;11.600;2023-04-24T00:34:05;11.00;99.90
18882;DHT22;9573;50.948;11.600;2023-04-24T00:36:33;11.00;99.90
18882;DHT22;9573;50.948;11.600;2023-04-24T00:39:00;11.00;99.90
18882;DHT22;9573;50.948;11.600;2023-04-24T00:41:27;11.10;99.90
18882;DHT22;9573;50.948;11.600;2023-04-24T00:43:56;11.10;99.90
18882;DHT22;9573;50.948;11.600;2023-04-24T00:46:23;11.10;99.90
18882;DHT22;9573;50.948;11.600;2023-04-24T00:48:50;11.10;99.90
18882;DHT22;9573;50.948;11.600;2023-04-24T00:51:17;11.10;99.90
18882;DHT22;9573;50.948;11.600;2023-04-24T00:53:45;11.10;99.90
18882;DHT22;9573;50.948;11.600;2023-04-24T00:56:12;11.00;99.90
18882;DHT22;9573;50.948;11.600;2023-04-24T00:58:39;11.00;99.90
18882;DHT22;9573;50.948;11.600;2023-04-24T01:01:09;11.00;99.90
18882;DHT22;9573;50.948;11.600;2023-04-24T01:03:37;11.00;99.90
18882;DHT22;9573;50.948;11.600;2023-04-24T01:06:05;11.00;99.90
18882;DHT22;9573;50.948;11.600;2023-04-24T01:08:33;11.00;99.90
18882;DHT22;9573;50.948;11.600;2023-04-24T01:11:03;11.00;99.90
18882;DHT22;9573;50.948;11.600;2023-04-24T01:13:31;10.90;99.90
18882;DHT22;9573;50.948;11.600;2023-04-24T01:15:59;11.00;99.90
18882;DHT22;9573;50.948;11.600;2023-04-24T01:18:28;10.90;99.90
18882;DHT22;9573;50.948;11.600;2023-04-24T01:20:58;10.90;99.90
18882;DHT22;9573;50.948;11.600;2023-04-24T01:23:27;10.90;99.90
18882;DHT22;9573;50.948;11.600;2023-04-24T01:25:54;10.90;99.90
18882;DHT22;9573;50.948;11.600;2023-04-24T01:28:22;10.90;99.90
18882;DHT22;9573;50.948;11.600;2023-04-24T01:30:50;10.90;99.90
18882;DHT22;9573;50.948;11.600;2023-04-24T01:33:17;10.90;99.90
18882;DHT22;9573;50.948;11.600;2023-04-24T01:35:46;10.90;99.90
18882;DHT22;9573;50.948;11.600;2023-04-24T01:38:13;10.90;99.90
18882;DHT22;9573;50.948;11.600;2023-04-24T01:40:41;10.90;99.90
18882;DHT22;9573;50.948;11.600;2023-04-24T01:43:09;10.90;99.90
18882;DHT22;9573;50.948;11.600;2023-04-24T01:45:36;10.90;99.90
18882;DHT22;9573;50.948;11.600;2023-04-24T01:48:03;10.90;99.90
18882;DHT22;9573;50.948;11.600;2023-04-24T01:50:30;10.90;99.90
18882;DHT22;9573;50.948;11.600;2023-04-24T01:52:58;10.80;99.90
18882;DHT22;9573;50.948;11.600;2023-04-24T01:55:25;10.80;99.90
18882;DHT22;9573;50.948;11.600;2023-04-24T01:57:55;10.80;99.90
18882;DHT22;9573;50.948;11.600;2023-04-24T02:00:23;10.80;99.90
18882;DHT22;9573;50.948;11.600;2023-04-24T02:02:51;10.70;99.90
18882;DHT22;9573;50.948;11.600;2023-04-24T02:05:18;10.70;99.90
18882;DHT22;9573;50.948;11.600;2023-04-24T02:07:45;10.70;99.90
18882;DHT22;9573;50.948;11.600;2023-04-24T02:10:12;10.70;99.90
18882;DHT22;9573;50.948;11.600;2023-04-24T02:12:39;10.80;99.90
18882;DHT22;9573;50.948;11.600;2023-04-24T02:15:09;10.80;99.90
18882;DHT22;9573;50.948;11.600;2023-04-24T02:17:37;10.80;99.90
18882;DHT22;9573;50.948;11.600;2023-04-24T02:20:05;10.80;99.90
18882;DHT22;9573;50.948;11.600;2023-04-24T02:22:33;10.80;99.90
18882;DHT22;9573;50.948;11.600;2023-04-24T02:25:00;10.80;99.90
18882;DHT22;9573;50.948;11.600;2023-04-24T02:27:27;10.80;99.90
18882;DHT22;9573;50.948;11.600;2023-04-24T02:29:54;10.80;99.90
18882;DHT22;9573;50.948;11.600;2023-04-24T02:32:23;10.80;99.90
18882;DHT22;9573;50.948;11.600;2023-04-24T02:34:50;10.80;99.90
18882;DHT22;9573;50.948;11.600;2023-04-24T02:37:17;10.90;99.90
18882;DHT22;9573;50.948;11.600;2023-04-24T02:39:44;10.80;99.90
18882;DHT22;9573;50.948;11.600;2023-04-24T02:42:11;10.80;99.90
18882;DHT22;9573;50.948;11.600;2023-04-24T02:44:38;10.90;99.90
18882;DHT22;9573;50.948;11.600;2023-04-24T02:47:06;10.90;99.90
18882;DHT22;9573;50.948;11.600;2023-04-24T02:49:35;10.90;99.90
18882;DHT22;9573;50.948;11.600;2023-04-24T02:52:02;10.90;99.90
18882;DHT22;9573;50.948;11.600;2023-04-24T02:54:29;10.90;99.90
18882;DHT22;9573;50.948;11.600;2023-04-24T02:56:56;10.90;99.90
18882;DHT22;9573;50.948;11.600;2023-04-24T02:59:24;10.80;99.90
18882;DHT22;9573;50.948;11.600;2023-04-24T03:01:52;10.80;99.90
18882;DHT22;9573;50.948;11.600;2023-04-24T03:04:19;10.70;99.90
18882;DHT22;9573;50.948;11.600;2023-04-24T03:06:49;10.70;99.90
18882;DHT22;9573;50.948;11.600;2023-04-24T03:09:18;10.60;99.90
18882;DHT22;9573;50.948;11.600;2023-04-24T03:11:45;10.60;99.90
18882;DHT22;9573;50.948;11.600;2023-04-24T03:14:12;10.60;99.90
18882;DHT22;9573;50.948;11.600;2023-04-24T03:16:39;10.60;99.90
18882;DHT22;9573;50.948;11.600;2023-04-24T03:19:06;10.60;99.90
18882;DHT22;9573;50.948;11.600;2023-04-24T03:21:34;10.60;99.90
18882;DHT22;9573;50.948;11.600;2023-04-24T03:24:07;10.60;99.90
18882;DHT22;9573;50.948;11.600;2023-04-24T03:26:35;10.60;99.90
18882;DHT22;9573;50.948;11.600;2023-04-24T03:29:02;10.70;99.90
18882;DHT22;9573;50.948;11.600;2023-04-24T03:31:29;10.70;99.90
18882;DHT22;9573;50.948;11.600;2023-04-24T03:33:56;10.70;99.90
18882;DHT22;9573;50.948;11.600;2023-04-24T03:36:23;10.70;99.90
18882;DHT22;9573;50.948;11.600;2023-04-24T03:38:51;10.70;99.90
18882;DHT22;9573;50.948;11.600;2023-04-24T03:41:20;10.70;99.90
18882;DHT22;9573;50.948;11.600;2023-04-24T03:43:48;10.70;99.90
18882;DHT22;9573;50.948;11.600;2023-04-24T03:46:15;10.60;99.90
18882;DHT22;9573;50.948;11.600;2023-04-24T03:48:42;10.60;99.90
18882;DHT22;9573;50.948;11.600;2023-04-24T03:51:09;10.60;99.90
18882;DHT22;9573;50.948;11.600;2023-04-24T03:53:36;10.50;99.90
18882;DHT22;9573;50.948;11.600;2023-04-24T03:56:03;10.50;99.90
18882;DHT22;9573;50.948;11.600;2023-04-24T03:58:32;10.50;99.90
18882;DHT22;9573;50.948;11.600;2023-04-24T04:00:59;10.50;99.90
18882;DHT22;9573;50.948;11.600;2023-04-24T04:03:26;10.50;99.90
18882;DHT22;9573;50.948;11.600;2023-04-24T04:05:53;10.50;99.90
18882;DHT22;9573;50.948;11.600;2023-04-24T04:08:20;10.50;99.90
18882;DHT22;9573;50.948;11.600;2023-04-24T04:10:48;10.50;99.90
18882;DHT22;9573;50.948;11.600;2023-04-24T04:13:15;10.50;99.90
18882;DHT22;9573;50.948;11.600;2023-04-24T04:15:43;10.50;99.90
18882;DHT22;9573;50.948;11.600;2023-04-24T04:18:11;10.50;99.90
18882;DHT22;9573;50.948;11.600;2023-04-24T04:20:38;10.50;99.90
18882;DHT22;9573;50.948;11.600;2023-04-24T04:23:05;10.50;99.90
18882;DHT22;9573;50.948;11.600;2023-04-24T04:25:32;10.60;99.90
18882;DHT22;9573;50.948;11.600;2023-04-24T04:27:59;10.60;99.90
18882;DHT22;9573;50.948;11.600;2023-04-24T04:30:27;10.70;99.90
18882;DHT22;9573;50.948;11.600;2023-04-24T04:32:56;10.70;99.90
18882;DHT22;9573;50.948;11.600;2023-04-24T04:35:23;10.70;99.90
18882;DHT22;9573;50.948;11.600;2023-04-24T04:37:50;10.80;99.90
18882;DHT22;9573;50.948;11.600;2023-04-24T04:40:20;10.90;99.90
18882;DHT22;9573;50.948;11.600;2023-04-24T04:42:49;11.00;99.90
18882;DHT22;9573;50.948;11.600;2023-04-24T04:45:18;11.10;99.90
18882;DHT22;9573;50.948;11.600;2023-04-24T04:47:46;11.20;99.90
18882;DHT22;9573;50.948;11.600;2023-04-24T04:50:15;11.20;99.90
18882;DHT22;9573;50.948;11.600;2023-04-24T04:52:45;11.30;99.90
18882;DHT22;9573;50.948;11.600;2023-04-24T04:55:14;11.40;99.90
18882;DHT22;9573;50.948;11.600;2023-04-24T04:57:44;11.40;99.90
18882;DHT22;9573;50.948;11.600;2023-04-24T05:00:12;11.50;99.90
18882;DHT22;9573;50.948;11.600;2023-04-24T05:02:42;11.70;99.90
18882;DHT22;9573;50.948;11.600;2023-04-24T05:05:10;11.90;99.90
18882;DHT22;9573;50.948;11.600;2023-04-24T05:07:39;12.00;99.90
18882;DHT22;9573;50.948;11.600;2023-04-24T05:10:07;12.20;99.90
18882;DHT22;9573;50.948;11.600;2023-04-24T05:12:35;12.30;99.90
18882;DHT22;9573;50.948;11.600;2023-04-24T05:15:02;12.50;99.90
18882;DHT22;9573;50.948;11.600;2023-04-24T05:17:29;12.50;99.90
18882;DHT22;9573;50.948;11.600;2023-04-24T05:19:57;12.60;99.90
18882;DHT22;9573;50.948;11.600;2023-04-24T05:22:24;12.30;99.90
18882;DHT22;9573;50.948;11.600;2023-04-24T05:24:52;12.80;99.90
18882;DHT22;9573;50.948;11.600;2023-04-24T05:27:20;12.90;99.90
18882;DHT22;9573;50.948;11.600;2023-04-24T05:29:47;12.90;99.90
18882;DHT22;9573;50.948;11.600;2023-04-24T05:32:14;13.10;99.90
18882;DHT22;9573;50.948;11.600;2023-04-24T05:34:41;14.10;99.90
18882;DHT22;9573;50.948;11.600;2023-04-24T05:37:08;13.80;99.90
18882;DHT22;9573;50.948;11.600;2023-04-24T05:39:36;14.00;99.90
18882;DHT22;9573;50.948;11.600;2023-04-24T05:42:04;14.30;99.90
18882;DHT22;9573;50.948;11.600;2023-04-24T05:44:32;14.40;99.90
18882;DHT22;9573;50.948;11.600;2023-04-24T05:46:59;14.50;99.90
18882;DHT22;9573;50.948;11.600;2023-04-24T05:49:26;14.40;99.90
18882;DHT22;9573;50.948;11.600;2023-04-24T05:51:53;14.30;99.90
18882;DHT22;9573;50.948;11.600;2023-04-24T05:54:20;14.30;99.90
18882;DHT22;9573;50.948;11.600;2023-04-24T05:56:49;14.30;99.90
18882;DHT22;9573;50.948;11.600;2023-04-24T05:59:17;14.40;99.90
18882;DHT22;9573;50.948;11.600;2023-04-24T06:01:45;14.90;99.90
18882;DHT22;9573;50.948;11.600;2023-04-24T06:04:14;16.00;99.90
18882;DHT22;9573;50.948;11.600;2023-04-24T06:06:41;17.00;99.90
18882;DHT22;9573;50.948;11.600;2023-04-24T06:09:11;17.60;99.90
18882;DHT22;9573;50.948;11.600;2023-04-24T06:11:38;17.50;99.90
18882;DHT22;9573;50.948;11.600;2023-04-24T06:14:07;17.30;99.90
18882;DHT22;9573;50.948;11.600;2023-04-24T06:16:36;16.80;99.90
18882;DHT22;9573;50.948;11.600;2023-04-24T06:19:05;16.20;99.90
18882;DHT22;9573;50.948;11.600;2023-04-24T06:21:34;15.80;99.90
18882;DHT22;9573;50.948;11.600;2023-04-24T06:24:01;15.50;99.90
18882;DHT22;9573;50.948;11.600;2023-04-24T06:26:29;15.50;99.90
18882;DHT22;9573;50.948;11.600;2023-04-24T06:28:57;15.60;99.90
18882;DHT22;9573;50.948;11.600;2023-04-24T06:31:25;15.90;99.90
18882;DHT22;9573;50.948;11.600;2023-04-24T06:33:54;16.30;99.90
18882;DHT22;9573;50.948;11.600;2023-04-24T06:36:21;16.50;99.90
18882;DHT22;9573;50.948;11.600;2023-04-24T06:38:48;17.00;99.90
18882;DHT22;9573;50.948;11.600;2023-04-24T06:41:16;17.20;99.90
18882;DHT22;9573;50.948;11.600;2023-04-24T06:43:43;17.60;99.90
18882;DHT22;9573;50.948;11.600;2023-04-24T06:46:10;17.70;99.90
18882;DHT22;9573;50.948;11.600;2023-04-24T06:48:38;17.50;99.90
18882;DHT22;9573;50.948;11.600;2023-04-24T06:51:07;17.40;99.90
18882;DHT22;9573;50.948;11.600;2023-04-24T06:53:34;17.60;99.90
18882;DHT22;9573;50.948;11.600;2023-04-24T06:56:01;17.90;99.90
18882;DHT22;9573;50.948;11.600;2023-04-24T06:58:30;17.80;99.90
18882;DHT22;9573;50.948;11.600;2023-04-24T07:00:57;17.60;99.90
18882;DHT22;9573;50.948;11.600;2023-04-24T07:03:24;17.30;99.90
18882;DHT22;9573;50.948;11.600;2023-04-24T07:05:52;17.10;99.90
18882;DHT22;9573;50.948;11.600;2023-04-24T07:08:20;16.90;99.90
18882;DHT22;9573;50.948;11.600;2023-04-24T07:10:48;16.60;99.90
18882;DHT22;9573;50.948;11.600;2023-04-24T07:13:16;16.60;99.90
18882;DHT22;9573;50.948;11.600;2023-04-24T07:15:43;16.50;99.90
18882;DHT22;9573;50.948;11.600;2023-04-24T07:18:11;16.50;99.90
18882;DHT22;9573;50.948;11.600;2023-04-24T07:20:38;16.60;99.90
18882;DHT22;9573;50.948;11.600;2023-04-24T07:23:05;16.80;99.90
18882;DHT22;9573;50.948;11.600;2023-04-24T07:25:33;16.90;99.90
18882;DHT22;9573;50.948;11.600;2023-04-24T07:28:01;17.20;99.90
18882;DHT22;9573;50.948;11.600;2023-04-24T07:30:28;17.60;99.90
18882;DHT22;9573;50.948;11.600;2023-04-24T07:32:55;18.20;99.90
18882;DHT22;9573;50.948;11.600;2023-04-24T07:35:23;18.80;99.90
18882;DHT22;9573;50.948;11.600;2023-04-24T07:37:51;19.90;99.90
18882;DHT22;9573;50.948;11.600;2023-04-24T07:40:19;20.60;99.90
18882;DHT22;9573;50.948;11.600;2023-04-24T07:42:48;20.80;99.90
18882;DHT22;9573;50.948;11.600;2023-04-24T07:45:15;20.70;99.90
18882;DHT22;9573;50.948;11.600;2023-04-24T07:47:43;20.70;99.90
18882;DHT22;9573;50.948;11.600;2023-04-24T07:50:11;20.70;99.90
18882;DHT22;9573;50.948;11.600;2023-04-24T07:52:39;21.20;99.90
18882;DHT22;9573;50.948;11.600;2023-04-24T07:55:06;21.90;99.90
18882;DHT22;9573;50.948;11.600;2023-04-24T07:57:34;22.10;99.90
18882;DHT22;9573;50.948;11.600;2023-04-24T08:00:04;21.60;99.90
18882;DHT22;9573;50.948;11.600;2023-04-24T08:02:32;21.10;99.90
18882;DHT22;9573;50.948;11.600;2023-04-24T08:05:00;20.20;99.90
18882;DHT22;9573;50.948;11.600;2023-04-24T08:07:28;19.40;99.90
18882;DHT22;9573;50.948;11.600;2023-04-24T08:09:55;18.80;99.90
18882;DHT22;9573;50.948;11.600;2023-04-24T08:12:22;18.90;99.90
18882;DHT22;9573;50.948;11.600;2023-04-24T08:14:50;20.50;99.90
18882;DHT22;9573;50.948;11.600;2023-04-24T08:17:18;21.60;99.90
18882;DHT22;9573;50.948;11.600;2023-04-24T08:19:45;22.10;99.90
18882;DHT22;9573;50.948;11.600;2023-04-24T08:22:14;23.20;99.80
18882;DHT22;9573;50.948;11.600;2023-04-24T08:24:41;26.00;94.90
18882;DHT22;9573;50.948;11.600;2023-04-24T08:27:09;28.90;83.30
18882;DHT22;9573;50.948;11.600;2023-04-24T08:29:37;29.10;72.50
18882;DHT22;9573;50.948;11.600;2023-04-24T08:32:04;28.80;71.10
18882;DHT22;9573;50.948;11.600;2023-04-24T08:34:32;30.40;66.40
18882;DHT22;9573;50.948;11.600;2023-04-24T08:36:59;29.70;66.60
18882;DHT22;9573;50.948;11.600;2023-04-24T08:39:26;28.50;66.40
18882;DHT22;9573;50.948;11.600;2023-04-24T08:41:55;26.20;68.10
18882;DHT22;9573;50.948;11.600;2023-04-24T08:44:22;24.90;71.10
18882;DHT22;9573;50.948;11.600;2023-04-24T08:46:50;23.80;73.90
18882;DHT22;9573;50.948;11.600;2023-04-24T08:49:17;23.40;75.90
18882;DHT22;9573;50.948;11.600;2023-04-24T08:51:47;22.80;77.20
18882;DHT22;9573;50.948;11.600;2023-04-24T08:54:15;22.00;79.60
18882;DHT22;9573;50.948;11.600;2023-04-24T08:56:44;21.30;82.40
18882;DHT22;9573;50.948;11.600;2023-04-24T08:59:12;22.30;76.80
18882;DHT22;9573;50.948;11.600;2023-04-24T09:01:40;24.10;71.80
18882;DHT22;9573;50.948;11.600;2023-04-24T09:04:08;23.80;69.80
18882;DHT22;9573;50.948;11.600;2023-04-24T09:06:37;23.30;70.90
18882;DHT22;9573;50.948;11.600;2023-04-24T09:09:07;23.20;72.30
18882;DHT22;9573;50.948;11.600;2023-04-24T09:11:37;23.40;72.50
18882;DHT22;9573;50.948;11.600;2023-04-24T09:14:04;23.60;71.30
18882;DHT22;9573;50.948;11.600;2023-04-24T09:16:31;23.00;70.70
18882;DHT22;9573;50.948;11.600;2023-04-24T09:18:59;22.30;72.80
18882;DHT22;9573;50.948;11.600;2023-04-24T09:21:31;22.00;74.30
18882;DHT22;9573;50.948;11.600;2023-04-24T09:24:00;21.40;74.30
18882;DHT22;9573;50.948;11.600;2023-04-24T09:26:31;21.40;76.30
18882;DHT22;9573;50.948;11.600;2023-04-24T09:28:59;21.30;75.50
18882;DHT22;9573;50.948;11.600;2023-04-24T09:31:28;21.20;75.80
18882;DHT22;9573;50.948;11.600;2023-04-24T09:33:57;21.30;76.30
18882;DHT22;9573;50.948;11.600;2023-04-24T09:36:28;21.20;74.80
18882;DHT22;9573;50.948;11.600;2023-04-24T09:38:59;22.30;73.00
18882;DHT22;9573;50.948;11.600;2023-04-24T09:41:27;23.10;71.30
18882;DHT22;9573;50.948;11.600;2023-04-24T09:43:56;22.70;70.20
18882;DHT22;9573;50.948;11.600;2023-04-24T09:46:30;21.80;71.40
18882;DHT22;9573;50.948;11.600;2023-04-24T09:49:08;21.20;73.80
18882;DHT22;9573;50.948;11.600;2023-04-24T09:51:37;20.90;74.20
18882;DHT22;9573;50.948;11.600;2023-04-24T09:54:13;20.60;75.60
18882;DHT22;9573;50.948;11.600;2023-04-24T09:56:44;20.40;76.70
18882;DHT22;9573;50.948;11.600;2023-04-24T09:59:13;20.70;76.20
18882;DHT22;9573;50.948;11.600;2023-04-24T10:01:41;21.10;75.50
18882;DHT22;9573;50.948;11.600;2023-04-24T10:04:16;21.20;73.40
18882;DHT22;9573;50.948;11.600;2023-04-24T10:06:45;20.70;73.80
18882;DHT22;9573;50.948;11.600;2023-04-24T10:09:14;20.50;75.00
18882;DHT22;9573;50.948;11.600;2023-04-24T10:11:44;20.40;74.90
18882;DHT22;9573;50.948;11.600;2023-04-24T10:14:13;20.70;74.20
18882;DHT22;9573;50.948;11.600;2023-04-24T10:16:44;21.10;74.00
18882;DHT22;9573;50.948;11.600;2023-04-24T10:19:13;21.50;73.00
18882;DHT22;9573;50.948;11.600;2023-04-24T10:21:42;21.70;71.00
18882;DHT22;9573;50.948;11.600;2023-04-24T10:24:12;21.60;71.00
18882;DHT22;9573;50.948;11.600;2023-04-24T10:26:41;21.60;70.00
18882;DHT22;9573;50.948;11.600;2023-04-24T10:29:12;21.00;69.30
18882;DHT22;9573;50.948;11.600;2023-04-24T10:31:41;20.60;71.40
18882;DHT22;9573;50.948;11.600;2023-04-24T10:34:11;21.30;71.30
18882;DHT22;9573;50.948;11.600;2023-04-24T10:36:42;21.80;69.80
18882;DHT22;9573;50.948;11.600;2023-04-24T10:39:13;21.60;70.00
18882;DHT22;9573;50.948;11.600;2023-04-24T10:41:41;21.10;70.60
18882;DHT22;9573;50.948;11.600;2023-04-24T10:44:13;20.60;71.90
18882;DHT22;9573;50.948;11.600;2023-04-24T10:46:44;20.90;72.10
18882;DHT22;9573;50.948;11.600;2023-04-24T10:49:11;20.90;70.30
18882;DHT22;9573;50.948;11.600;2023-04-24T10:51:47;20.60;70.00
18882;DHT22;9573;50.948;11.600;2023-04-24T10:54:25;20.30;71.20
18882;DHT22;9573;50.948;11.600;2023-04-24T10:56:53;20.70;71.20
18882;DHT22;9573;50.948;11.600;2023-04-24T11:00:20;20.80;70.10
18882;DHT22;9573;50.948;11.600;2023-04-24T11:02:48;20.60;70.40
18882;DHT22;9573;50.948;11.600;2023-04-24T11:05:19;20.40;70.40
18882;DHT22;9573;50.948;11.600;2023-04-24T11:08:11;19.60;69.80
18882;DHT22;9573;50.948;11.600;2023-04-24T11:10:40;19.00;71.30
18882;DHT22;9573;50.948;11.600;2023-04-24T11:13:08;18.90;72.00
18882;DHT22;9573;50.948;11.600;2023-04-24T11:15:36;19.00;71.80
18882;DHT22;9573;50.948;11.600;2023-04-24T11:18:04;19.20;72.20
18882;DHT22;9573;50.948;11.600;2023-04-24T11:20:31;19.30;71.80
18882;DHT22;9573;50.948;11.600;2023-04-24T11:23:03;19.50;72.80
18882;DHT22;9573;50.948;11.600;2023-04-24T11:25:32;19.70;72.00
18882;DHT22;9573;50.948;11.600;2023-04-24T11:28:05;19.60;71.50
18882;DHT22;9573;50.948;11.600;2023-04-24T11:30:33;19.20;69.10
18882;DHT22;9573;50.948;11.600;2023-04-24T11:33:05;19.00;69.90
18882;DHT22;9573;50.948;11.600;2023-04-24T11:35:39;18.90;69.90
18882;DHT22;9573;50.948;11.600;2023-04-24T11:38:07;19.10;69.90
18882;DHT22;9573;50.948;11.600;2023-04-24T11:40:34;19.40;70.00
18882;DHT22;9573;50.948;11.600;2023-04-24T11:43:01;19.50;69.80
18882;DHT22;9573;50.948;11.600;2023-04-24T11:45:32;19.60;69.80
18882;DHT22;9573;50.948;11.600;2023-04-24T11:47:59;19.50;71.00
18882;DHT22;9573;50.948;11.600;2023-04-24T11:50:28;19.50;70.90
18882;DHT22;9573;50.948;11.600;2023-04-24T11:52:55;19.60;70.60
18882;DHT22;9573;50.948;11.600;2023-04-24T11:55:24;19.80;71.00
18882;DHT22;9573;50.948;11.600;2023-04-24T11:57:54;19.90;70.60
18882;DHT22;9573;50.948;11.600;2023-04-24T12:00:24;20.00;70.60
18882;DHT22;9573;50.948;11.600;2023-04-24T12:03:04;20.10;70.60
18882;DHT22;9573;50.948;11.600;2023-04-24T12:05:33;20.20;69.60
18882;DHT22;9573;50.948;11.600;2023-04-24T12:08:01;21.10;67.60
18882;DHT22;9573;50.948;11.600;2023-04-24T12:10:30;22.40;64.40
18882;DHT22;9573;50.948;11.600;2023-04-24T12:12:58;23.60;62.20
18882;DHT22;9573;50.948;11.600;2023-04-24T12:15:26;23.80;59.80
18882;DHT22;9573;50.948;11.600;2023-04-24T12:17:55;23.20;60.00
18882;DHT22;9573;50.948;11.600;2023-04-24T12:20:30;22.40;61.30
18882;DHT22;9573;50.948;11.600;2023-04-24T12:23:01;22.00;63.30
18882;DHT22;9573;50.948;11.600;2023-04-24T12:25:29;22.40;63.30
18882;DHT22;9573;50.948;11.600;2023-04-24T12:28:09;22.70;61.50
18882;DHT22;9573;50.948;11.600;2023-04-24T12:30:40;21.90;62.00
18882;DHT22;9573;50.948;11.600;2023-04-24T12:33:10;21.40;64.10
18882;DHT22;9573;50.948;11.600;2023-04-24T12:35:40;21.00;65.20
18882;DHT22;9573;50.948;11.600;2023-04-24T12:38:11;21.10;65.80
18882;DHT22;9573;50.948;11.600;2023-04-24T12:40:39;21.60;65.70
18882;DHT22;9573;50.948;11.600;2023-04-24T12:43:13;22.10;64.40
18882;DHT22;9573;50.948;11.600;2023-04-24T12:45:41;22.50;64.50
18882;DHT22;9573;50.948;11.600;2023-04-24T12:48:10;22.80;64.00
18882;DHT22;9573;50.948;11.600;2023-04-24T12:50:38;23.10;63.70
18882;DHT22;9573;50.948;11.600;2023-04-24T12:53:06;22.90;61.70
18882;DHT22;9573;50.948;11.600;2023-04-24T12:55:35;22.70;62.40
18882;DHT22;9573;50.948;11.600;2023-04-24T12:58:03;22.60;61.60
18882;DHT22;9573;50.948;11.600;2023-04-24T13:00:31;21.90;62.40
18882;DHT22;9573;50.948;11.600;2023-04-24T13:02:58;22.00;64.00
18882;DHT22;9573;50.948;11.600;2023-04-24T13:05:25;21.60;64.80
18882;DHT22;9573;50.948;11.600;2023-04-24T13:07:53;21.60;65.40
18882;DHT22;9573;50.948;11.600;2023-04-24T13:10:20;21.30;65.10
18882;DHT22;9573;50.948;11.600;2023-04-24T13:12:48;21.00;65.30
18882;DHT22;9573;50.948;11.600;2023-04-24T13:15:16;20.20;66.40
18882;DHT22;9573;50.948;11.600;2023-04-24T13:17:43;19.60;68.30
18882;DHT22;9573;50.948;11.600;2023-04-24T13:20:10;19.00;70.20
18882;DHT22;9573;50.948;11.600;2023-04-24T13:22:37;18.90;71.40
18882;DHT22;9573;50.948;11.600;2023-04-24T13:25:05;19.00;71.80
18882;DHT22;9573;50.948;11.600;2023-04-24T13:27:33;19.10;72.20
18882;DHT22;9573;50.948;11.600;2023-04-24T13:30:02;19.00;72.60
18882;DHT22;9573;50.948;11.600;2023-04-24T13:32:29;19.00;73.10
18882;DHT22;9573;50.948;11.600;2023-04-24T13:34:57;19.00;73.70
18882;DHT22;9573;50.948;11.600;2023-04-24T13:37:24;18.60;74.50
18882;DHT22;9573;50.948;11.600;2023-04-24T13:39:51;18.20;75.80
18882;DHT22;9573;50.948;11.600;2023-04-24T13:42:19;17.80;77.10
18882;DHT22;9573;50.948;11.600;2023-04-24T13:44:47;17.50;78.80
18882;DHT22;9573;50.948;11.600;2023-04-24T13:47:15;17.10;81.00
18882;DHT22;9573;50.948;11.600;2023-04-24T13:49:42;16.70;82.90
18882;DHT22;9573;50.948;11.600;2023-04-24T13:52:09;16.60;85.90
18882;DHT22;9573;50.948;11.600;2023-04-24T13:54:36;16.30;87.80
18882;DHT22;9573;50.948;11.600;2023-04-24T13:57:04;16.50;88.10
18882;DHT22;9573;50.948;11.600;2023-04-24T13:59:31;16.90;86.80
18882;DHT22;9573;50.948;11.600;2023-04-24T14:01:58;17.50;85.30
18882;DHT22;9573;50.948;11.600;2023-04-24T14:04:27;17.90;84.40
18882;DHT22;9573;50.948;11.600;2023-04-24T14:06:54;18.10;84.60
18882;DHT22;9573;50.948;11.600;2023-04-24T14:09:21;18.30;83.70
18882;DHT22;9573;50.948;11.600;2023-04-24T14:11:49;18.50;82.90
18882;DHT22;9573;50.948;11.600;2023-04-24T14:14:16;18.30;81.90
18882;DHT22;9573;50.948;11.600;2023-04-24T14:16:43;18.10;82.00
18882;DHT22;9573;50.948;11.600;2023-04-24T14:19:10;18.00;81.30
18882;DHT22;9573;50.948;11.600;2023-04-24T14:21:39;18.20;81.80
18882;DHT22;9573;50.948;11.600;2023-04-24T14:24:06;18.50;80.80
18882;DHT22;9573;50.948;11.600;2023-04-24T14:26:33;18.30;80.30
18882;DHT22;9573;50.948;11.600;2023-04-24T14:29:00;18.30;80.70
18882;DHT22;9573;50.948;11.600;2023-04-24T14:31:27;18.30;80.60
18882;DHT22;9573;50.948;11.600;2023-04-24T14:33:55;17.80;80.70
18882;DHT22;9573;50.948;11.600;2023-04-24T14:36:23;17.40;82.10
18882;DHT22;9573;50.948;11.600;2023-04-24T14:38:51;17.30;82.80
18882;DHT22;9573;50.948;11.600;2023-04-24T14:41:18;17.20;83.50
18882;DHT22;9573;50.948;11.600;2023-04-24T14:43:45;17.10;84.60
18882;DHT22;9573;50.948;11.600;2023-04-24T14:46:12;17.00;85.30
18882;DHT22;9573;50.948;11.600;2023-04-24T14:48:40;16.90;85.50
18882;DHT22;9573;50.948;11.600;2023-04-24T14:51:07;16.90;86.20
18882;DHT22;9573;50.948;11.600;2023-04-24T14:53:34;17.10;86.10
18882;DHT22;9573;50.948;11.600;2023-04-24T14:56:03;17.40;85.80
18882;DHT22;9573;50.948;11.600;2023-04-24T14:58:30;17.20;85.10
18882;DHT22;9573;50.948;11.600;2023-04-24T15:00:58;17.30;85.30
18882;DHT22;9573;50.948;11.600;2023-04-24T15:03:25;17.40;85.00
18882;DHT22;9573;50.948;11.600;2023-04-24T15:05:53;17.40;85.10
18882;DHT22;9573;50.948;11.600;2023-04-24T15:08:20;17.50;84.70
18882;DHT22;9573;50.948;11.600;2023-04-24T15:10:47;17.20;84.60
18882;DHT22;9573;50.948;11.600;2023-04-24T15:13:16;16.80;85.40
18882;DHT22;9573;50.948;11.600;2023-04-24T15:15:46;16.50;86.90
18882;DHT22;9573;50.948;11.600;2023-04-24T15:18:13;16.40;88.40
18882;DHT22;9573;50.948;11.600;2023-04-24T15:20:40;16.20;89.00
18882;DHT22;9573;50.948;11.600;2023-04-24T15:23:08;16.20;89.70
18882;DHT22;9573;50.948;11.600;2023-04-24T15:25:36;16.20;90.20
18882;DHT22;9573;50.948;11.600;2023-04-24T15:28:05;16.40;90.20
18882;DHT22;9573;50.948;11.600;2023-04-24T15:30:33;16.60;90.10
18882;DHT22;9573;50.948;11.600;2023-04-24T15:33:00;16.70;90.30
18882;DHT22;9573;50.948;11.600;2023-04-24T15:35:28;16.80;90.10
18882;DHT22;9573;50.948;11.600;2023-04-24T15:37:55;16.60;89.60